Dishforth, United Kingdom
Current Conditions -  °F | °C
As of 1:50 PM on Monday 20 Oct 2014 (Local Time) from EGXD Reporting Station
Broken Clouds Broken Clouds  
Wind Chill: 55°   Ceiling: 7000
Heat Index: 55°   Visibility: 6mi
Dew Point: 52°   Wind: 12mph
Humidity: 88%   Direction: 250°WSW
Pressure: 29.83"   Gusts: NA
Location:  54.13°N, 1.42°W
Report Text: EGXD 201250Z 25010KT 9999 FEW019 SCT045 BKN070 13/11 Q1010 RESHRA BLU TEMPO 5000 -SHRA SCT019 WHT
Loading
Personal Weather Stations






























Interactive Weather Map
Tropical Storm Tracking
New forecast layout! Learn more

10-Day Weather Forecast

Advertisements
Track Severe Weather on mobile